sensor_id;sensor_type;location;lat;lon;timestamp;P1;P2;P0
49343;PMS5003;35210;41.606;-87.602;2023-09-08T00:01:41;1.40;1.40;1.40
49343;PMS5003;35210;41.606;-87.602;2023-09-08T00:04:10;2.20;2.20;1.40
49343;PMS5003;35210;41.606;-87.602;2023-09-08T00:06:40;2.80;2.00;2.00
49343;PMS5003;35210;41.606;-87.602;2023-09-08T00:09:09;2.00;2.00;1.00
49343;PMS5003;35210;41.606;-87.602;2023-09-08T00:11:38;1.00;1.00;1.00
49343;PMS5003;35210;41.606;-87.602;2023-09-08T00:14:06;4.20;2.00;1.40
49343;PMS5003;35210;41.606;-87.602;2023-09-08T00:16:34;2.60;2.00;1.00
49343;PMS5003;35210;41.606;-87.602;2023-09-08T00:19:02;3.80;3.80;2.60
49343;PMS5003;35210;41.606;-87.602;2023-09-08T00:21:31;2.40;2.40;2.00
49343;PMS5003;35210;41.606;-87.602;2023-09-08T00:23:59;1.00;1.00;1.00
49343;PMS5003;35210;41.606;-87.602;2023-09-08T00:26:30;1.40;1.40;1.00
49343;PMS5003;35210;41.606;-87.602;2023-09-08T00:28:59;2.40;2.00;1.80
49343;PMS5003;35210;41.606;-87.602;2023-09-08T00:31:27;3.60;3.60;3.00
49343;PMS5003;35210;41.606;-87.602;2023-09-08T00:33:56;4.60;4.60;3.60
49343;PMS5003;35210;41.606;-87.602;2023-09-08T00:36:24;6.00;3.40;2.20
49343;PMS5003;35210;41.606;-87.602;2023-09-08T00:38:53;5.80;3.00;2.00
49343;PMS5003;35210;41.606;-87.602;2023-09-08T00:41:22;4.00;4.00;2.00
49343;PMS5003;35210;41.606;-87.602;2023-09-08T00:43:53;4.60;3.20;2.40
49343;PMS5003;35210;41.606;-87.602;2023-09-08T00:46:22;2.00;2.00;2.00
49343;PMS5003;35210;41.606;-87.602;2023-09-08T00:48:52;2.00;2.00;1.00
49343;PMS5003;35210;41.606;-87.602;2023-09-08T00:51:21;1.20;1.20;1.20
49343;PMS5003;35210;41.606;-87.602;2023-09-08T00:53:49;3.40;2.40;2.00
49343;PMS5003;35210;41.606;-87.602;2023-09-08T00:56:18;3.80;3.80;3.00
49343;PMS5003;35210;41.606;-87.602;2023-09-08T00:58:47;2.60;2.00;2.00
49343;PMS5003;35210;41.606;-87.602;2023-09-08T01:01:17;5.00;4.00;3.00
49343;PMS5003;35210;41.606;-87.602;2023-09-08T01:03:46;2.00;2.00;1.80
49343;PMS5003;35210;41.606;-87.602;2023-09-08T01:06:14;3.00;3.00;2.00
49343;PMS5003;35210;41.606;-87.602;2023-09-08T01:08:43;3.00;3.00;2.80
49343;PMS5003;35210;41.606;-87.602;2023-09-08T01:11:12;3.20;3.20;2.00
49343;PMS5003;35210;41.606;-87.602;2023-09-08T01:13:40;4.00;4.00;3.00
49343;PMS5003;35210;41.606;-87.602;2023-09-08T01:16:10;3.80;3.00;3.00
49343;PMS5003;35210;41.606;-87.602;2023-09-08T01:18:40;4.00;4.00;3.00
49343;PMS5003;35210;41.606;-87.602;2023-09-08T01:21:30;3.20;3.20;3.00
49343;PMS5003;35210;41.606;-87.602;2023-09-08T01:24:20;4.00;2.80;2.00
49343;PMS5003;35210;41.606;-87.602;2023-09-08T01:27:15;3.20;3.20;2.80
49343;PMS5003;35210;41.606;-87.602;2023-09-08T01:29:45;3.20;3.00;2.00
49343;PMS5003;35210;41.606;-87.602;2023-09-08T01:32:16;3.00;3.00;3.00
49343;PMS5003;35210;41.606;-87.602;2023-09-08T01:34:45;2.20;2.20;1.80
49343;PMS5003;35210;41.606;-87.602;2023-09-08T01:37:13;3.00;3.00;2.00
49343;PMS5003;35210;41.606;-87.602;2023-09-08T01:39:41;3.20;3.20;2.00
49343;PMS5003;35210;41.606;-87.602;2023-09-08T01:42:10;4.00;4.00;3.40
49343;PMS5003;35210;41.606;-87.602;2023-09-08T01:44:40;2.80;2.80;2.20
49343;PMS5003;35210;41.606;-87.602;2023-09-08T01:47:08;4.00;3.00;2.60
49343;PMS5003;35210;41.606;-87.602;2023-09-08T01:49:37;3.20;2.00;2.00
49343;PMS5003;35210;41.606;-87.602;2023-09-08T01:52:05;3.00;3.00;2.00
49343;PMS5003;35210;41.606;-87.602;2023-09-08T01:54:33;3.00;3.00;2.80
49343;PMS5003;35210;41.606;-87.602;2023-09-08T01:57:01;3.40;2.80;2.40
49343;PMS5003;35210;41.606;-87.602;2023-09-08T01:59:29;3.00;3.00;2.60
49343;PMS5003;35210;41.606;-87.602;2023-09-08T02:01:59;3.00;3.00;2.20
49343;PMS5003;35210;41.606;-87.602;2023-09-08T02:04:27;4.00;4.00;3.00
49343;PMS5003;35210;41.606;-87.602;2023-09-08T02:06:55;4.00;4.00;2.40
49343;PMS5003;35210;41.606;-87.602;2023-09-08T02:09:29;3.60;3.60;3.00
49343;PMS5003;35210;41.606;-87.602;2023-09-08T02:11:59;2.00;2.00;2.00
49343;PMS5003;35210;41.606;-87.602;2023-09-08T02:14:27;5.00;3.80;3.00
49343;PMS5003;35210;41.606;-87.602;2023-09-08T02:16:55;3.40;3.00;2.40
49343;PMS5003;35210;41.606;-87.602;2023-09-08T02:19:25;2.80;2.40;2.00
49343;PMS5003;35210;41.606;-87.602;2023-09-08T02:21:53;1.80;1.80;1.40
49343;PMS5003;35210;41.606;-87.602;2023-09-08T02:24:21;5.80;4.40;3.00
49343;PMS5003;35210;41.606;-87.602;2023-09-08T02:26:49;3.80;3.80;3.00
49343;PMS5003;35210;41.606;-87.602;2023-09-08T02:29:17;2.20;2.20;2.00
49343;PMS5003;35210;41.606;-87.602;2023-09-08T02:31:46;3.80;3.20;3.00
49343;PMS5003;35210;41.606;-87.602;2023-09-08T02:34:14;3.00;2.60;2.40
49343;PMS5003;35210;41.606;-87.602;2023-09-08T02:36:44;3.80;3.80;3.60
49343;PMS5003;35210;41.606;-87.602;2023-09-08T02:39:13;3.20;3.20;3.00
49343;PMS5003;35210;41.606;-87.602;2023-09-08T02:41:41;4.20;4.20;4.00
49343;PMS5003;35210;41.606;-87.602;2023-09-08T02:44:09;3.40;3.40;3.20
49343;PMS5003;35210;41.606;-87.602;2023-09-08T02:46:37;3.00;3.00;3.00
49343;PMS5003;35210;41.606;-87.602;2023-09-08T02:49:05;3.40;3.00;3.00
49343;PMS5003;35210;41.606;-87.602;2023-09-08T02:51:33;2.80;2.80;2.80
49343;PMS5003;35210;41.606;-87.602;2023-09-08T02:54:03;4.00;4.00;3.40
49343;PMS5003;35210;41.606;-87.602;2023-09-08T02:56:31;2.00;2.00;1.80
49343;PMS5003;35210;41.606;-87.602;2023-09-08T02:58:59;2.80;2.80;2.00
49343;PMS5003;35210;41.606;-87.602;2023-09-08T03:01:28;4.40;3.20;2.60
49343;PMS5003;35210;41.606;-87.602;2023-09-08T03:03:56;3.40;2.80;2.40
49343;PMS5003;35210;41.606;-87.602;2023-09-08T03:06:24;5.00;4.00;2.80
49343;PMS5003;35210;41.606;-87.602;2023-09-08T03:08:52;2.80;2.80;2.00
49343;PMS5003;35210;41.606;-87.602;2023-09-08T03:11:22;2.20;2.20;2.00
49343;PMS5003;35210;41.606;-87.602;2023-09-08T03:13:50;3.20;3.20;2.00
49343;PMS5003;35210;41.606;-87.602;2023-09-08T03:16:18;2.60;2.60;2.60
49343;PMS5003;35210;41.606;-87.602;2023-09-08T03:18:47;4.00;4.00;3.00
49343;PMS5003;35210;41.606;-87.602;2023-09-08T03:21:15;3.00;2.00;1.60
49343;PMS5003;35210;41.606;-87.602;2023-09-08T03:23:43;5.00;3.00;2.00
49343;PMS5003;35210;41.606;-87.602;2023-09-08T03:26:12;2.00;2.00;2.00
49343;PMS5003;35210;41.606;-87.602;2023-09-08T03:28:42;4.60;4.60;4.00
49343;PMS5003;35210;41.606;-87.602;2023-09-08T03:31:11;4.00;4.00;2.00
49343;PMS5003;35210;41.606;-87.602;2023-09-08T03:33:39;2.40;2.40;2.40
49343;PMS5003;35210;41.606;-87.602;2023-09-08T03:36:08;4.60;4.00;2.40
49343;PMS5003;35210;41.606;-87.602;2023-09-08T03:38:36;5.20;3.00;2.00
49343;PMS5003;35210;41.606;-87.602;2023-09-08T03:41:04;4.40;3.20;3.00
49343;PMS5003;35210;41.606;-87.602;2023-09-08T03:43:33;2.20;2.20;2.00
49343;PMS5003;35210;41.606;-87.602;2023-09-08T03:46:04;5.80;4.00;3.00
49343;PMS5003;35210;41.606;-87.602;2023-09-08T03:48:32;2.80;2.80;2.60
49343;PMS5003;35210;41.606;-87.602;2023-09-08T03:51:00;3.40;2.60;2.20
49343;PMS5003;35210;41.606;-87.602;2023-09-08T03:53:28;3.00;3.00;2.80
49343;PMS5003;35210;41.606;-87.602;2023-09-08T03:55:56;3.40;2.40;1.80
49343;PMS5003;35210;41.606;-87.602;2023-09-08T03:58:24;2.20;2.20;2.00
49343;PMS5003;35210;41.606;-87.602;2023-09-08T04:00:52;3.80;3.00;2.80
49343;PMS5003;35210;41.606;-87.602;2023-09-08T04:03:23;1.00;1.00;1.00
49343;PMS5003;35210;41.606;-87.602;2023-09-08T04:05:51;3.40;3.40;2.40
49343;PMS5003;35210;41.606;-87.602;2023-09-08T04:08:19;3.80;2.00;2.00
49343;PMS5003;35210;41.606;-87.602;2023-09-08T04:10:47;3.00;3.00;2.60
49343;PMS5003;35210;41.606;-87.602;2023-09-08T04:13:15;2.40;2.40;2.00
49343;PMS5003;35210;41.606;-87.602;2023-09-08T04:15:43;2.80;2.80;2.20
49343;PMS5003;35210;41.606;-87.602;2023-09-08T04:18:12;1.80;1.80;1.40
49343;PMS5003;35210;41.606;-87.602;2023-09-08T04:20:42;4.80;2.60;1.40
49343;PMS5003;35210;41.606;-87.602;2023-09-08T04:23:11;3.00;3.00;2.00
49343;PMS5003;35210;41.606;-87.602;2023-09-08T04:25:40;3.60;3.00;2.00
49343;PMS5003;35210;41.606;-87.602;2023-09-08T04:28:08;3.60;3.00;2.80
49343;PMS5003;35210;41.606;-87.602;2023-09-08T04:30:36;2.00;2.00;1.60
49343;PMS5003;35210;41.606;-87.602;2023-09-08T04:33:05;2.00;2.00;2.00
49343;PMS5003;35210;41.606;-87.602;2023-09-08T04:35:33;2.00;2.00;1.60
49343;PMS5003;35210;41.606;-87.602;2023-09-08T04:38:02;4.40;2.00;2.00
49343;PMS5003;35210;41.606;-87.602;2023-09-08T04:40:31;3.00;2.00;2.00
49343;PMS5003;35210;41.606;-87.602;2023-09-08T04:42:59;2.40;1.40;1.40
49343;PMS5003;35210;41.606;-87.602;2023-09-08T04:45:27;2.00;2.00;2.00
49343;PMS5003;35210;41.606;-87.602;2023-09-08T04:47:55;2.20;2.20;2.00
49343;PMS5003;35210;41.606;-87.602;2023-09-08T04:50:24;2.00;1.40;1.00
49343;PMS5003;35210;41.606;-87.602;2023-09-08T04:52:52;4.50;2.00;2.00
49343;PMS5003;35210;41.606;-87.602;2023-09-08T04:55:22;2.60;2.00;1.00
49343;PMS5003;35210;41.606;-87.602;2023-09-08T04:57:51;2.40;2.00;1.80
49343;PMS5003;35210;41.606;-87.602;2023-09-08T05:00:20;2.20;1.20;1.00
49343;PMS5003;35210;41.606;-87.602;2023-09-08T05:02:49;1.00;1.00;0.00
49343;PMS5003;35210;41.606;-87.602;2023-09-08T05:05:17;5.60;2.80;1.60
49343;PMS5003;35210;41.606;-87.602;2023-09-08T05:07:46;3.60;2.00;1.40
49343;PMS5003;35210;41.606;-87.602;2023-09-08T05:10:14;2.60;2.20;2.00
49343;PMS5003;35210;41.606;-87.602;2023-09-08T05:12:45;6.80;3.80;2.00
49343;PMS5003;35210;41.606;-87.602;2023-09-08T05:15:15;1.80;1.00;0.60
49343;PMS5003;35210;41.606;-87.602;2023-09-08T05:17:46;2.00;1.00;0.00
49343;PMS5003;35210;41.606;-87.602;2023-09-08T05:20:18;2.00;1.00;1.00
49343;PMS5003;35210;41.606;-87.602;2023-09-08T05:22:47;2.00;2.00;2.00
49343;PMS5003;35210;41.606;-87.602;2023-09-08T05:25:15;3.40;2.00;1.00
49343;PMS5003;35210;41.606;-87.602;2023-09-08T05:27:46;2.20;1.00;1.00
49343;PMS5003;35210;41.606;-87.602;2023-09-08T05:30:14;2.40;1.60;1.00
49343;PMS5003;35210;41.606;-87.602;2023-09-08T05:32:43;2.20;2.00;1.40
49343;PMS5003;35210;41.606;-87.602;2023-09-08T05:35:11;3.40;2.00;1.40
49343;PMS5003;35210;41.606;-87.602;2023-09-08T05:37:41;1.80;1.80;1.00
49343;PMS5003;35210;41.606;-87.602;2023-09-08T05:40:09;3.00;3.00;2.00
49343;PMS5003;35210;41.606;-87.602;2023-09-08T05:42:38;2.60;1.60;1.00
49343;PMS5003;35210;41.606;-87.602;2023-09-08T05:45:11;2.00;2.00;1.00
49343;PMS5003;35210;41.606;-87.602;2023-09-08T05:47:39;1.60;0.00;0.00
49343;PMS5003;35210;41.606;-87.602;2023-09-08T05:50:08;0.40;0.40;0.40
49343;PMS5003;35210;41.606;-87.602;2023-09-08T05:52:37;0.20;0.20;0.20
49343;PMS5003;35210;41.606;-87.602;2023-09-08T05:55:05;1.00;1.00;0.00
49343;PMS5003;35210;41.606;-87.602;2023-09-08T05:57:33;0.00;0.00;0.00
49343;PMS5003;35210;41.606;-87.602;2023-09-08T06:00:02;0.60;0.00;0.00
49343;PMS5003;35210;41.606;-87.602;2023-09-08T06:02:32;0.40;0.40;0.20
49343;PMS5003;35210;41.606;-87.602;2023-09-08T06:05:00;0.00;0.00;0.00
49343;PMS5003;35210;41.606;-87.602;2023-09-08T06:07:30;0.00;0.00;0.00
49343;PMS5003;35210;41.606;-87.602;2023-09-08T06:09:58;0.00;0.00;0.00
49343;PMS5003;35210;41.606;-87.602;2023-09-08T06:12:26;0.00;0.00;0.00
49343;PMS5003;35210;41.606;-87.602;2023-09-08T06:14:54;1.60;0.00;0.00
49343;PMS5003;35210;41.606;-87.602;2023-09-08T06:17:22;0.00;0.00;0.00
49343;PMS5003;35210;41.606;-87.602;2023-09-08T06:19:55;0.00;0.00;0.00
49343;PMS5003;35210;41.606;-87.602;2023-09-08T06:22:24;1.00;1.00;0.00
49343;PMS5003;35210;41.606;-87.602;2023-09-08T06:24:52;0.80;0.80;0.00
49343;PMS5003;35210;41.606;-87.602;2023-09-08T06:27:20;1.00;1.00;0.00
49343;PMS5003;35210;41.606;-87.602;2023-09-08T06:29:48;0.00;0.00;0.00
49343;PMS5003;35210;41.606;-87.602;2023-09-08T06:32:17;0.00;0.00;0.00
49343;PMS5003;35210;41.606;-87.602;2023-09-08T06:34:45;0.00;0.00;0.00
49343;PMS5003;35210;41.606;-87.602;2023-09-08T06:37:15;0.00;0.00;0.00
49343;PMS5003;35210;41.606;-87.602;2023-09-08T06:39:43;0.00;0.00;0.00
49343;PMS5003;35210;41.606;-87.602;2023-09-08T06:42:11;0.20;0.20;0.00
49343;PMS5003;35210;41.606;-87.602;2023-09-08T06:44:40;0.20;0.20;0.00
49343;PMS5003;35210;41.606;-87.602;2023-09-08T06:47:08;0.40;0.20;0.00
49343;PMS5003;35210;41.606;-87.602;2023-09-08T06:49:36;1.00;1.00;0.00
49343;PMS5003;35210;41.606;-87.602;2023-09-08T06:52:04;0.20;0.20;0.00
49343;PMS5003;35210;41.606;-87.602;2023-09-08T06:54:34;0.00;0.00;0.00
49343;PMS5003;35210;41.606;-87.602;2023-09-08T06:57:02;0.60;0.00;0.00
49343;PMS5003;35210;41.606;-87.602;2023-09-08T06:59:31;0.00;0.00;0.00
49343;PMS5003;35210;41.606;-87.602;2023-09-08T07:01:59;1.00;1.00;1.00
49343;PMS5003;35210;41.606;-87.602;2023-09-08T07:04:27;1.00;0.00;0.00
49343;PMS5003;35210;41.606;-87.602;2023-09-08T07:06:55;0.00;0.00;0.00
49343;PMS5003;35210;41.606;-87.602;2023-09-08T07:09:25;0.00;0.00;0.00
49343;PMS5003;35210;41.606;-87.602;2023-09-08T07:11:55;0.00;0.00;0.00
49343;PMS5003;35210;41.606;-87.602;2023-09-08T07:14:24;0.00;0.00;0.00
49343;PMS5003;35210;41.606;-87.602;2023-09-08T07:16:52;0.00;0.00;0.00
49343;PMS5003;35210;41.606;-87.602;2023-09-08T07:19:20;0.00;0.00;0.00
49343;PMS5003;35210;41.606;-87.602;2023-09-08T07:21:48;2.00;0.60;0.60
49343;PMS5003;35210;41.606;-87.602;2023-09-08T07:24:16;1.60;1.60;1.40
49343;PMS5003;35210;41.606;-87.602;2023-09-08T07:26:44;0.60;0.00;0.00
49343;PMS5003;35210;41.606;-87.602;2023-09-08T07:29:14;1.20;1.20;0.40
49343;PMS5003;35210;41.606;-87.602;2023-09-08T07:31:42;1.20;1.20;1.00
49343;PMS5003;35210;41.606;-87.602;2023-09-08T07:34:10;1.00;1.00;1.00
49343;PMS5003;35210;41.606;-87.602;2023-09-08T07:36:38;0.60;0.60;0.40
49343;PMS5003;35210;41.606;-87.602;2023-09-08T07:39:07;2.00;2.00;1.20
49343;PMS5003;35210;41.606;-87.602;2023-09-08T07:41:35;2.00;2.00;1.00
49343;PMS5003;35210;41.606;-87.602;2023-09-08T07:44:05;0.60;0.60;0.60
49343;PMS5003;35210;41.606;-87.602;2023-09-08T07:46:35;1.80;1.80;1.00
49343;PMS5003;35210;41.606;-87.602;2023-09-08T07:49:03;1.00;1.00;0.80
49343;PMS5003;35210;41.606;-87.602;2023-09-08T07:51:31;1.00;1.00;1.00
49343;PMS5003;35210;41.606;-87.602;2023-09-08T07:53:59;1.20;1.20;0.80
49343;PMS5003;35210;41.606;-87.602;2023-09-08T07:56:30;1.00;1.00;1.00
49343;PMS5003;35210;41.606;-87.602;2023-09-08T07:58:58;1.00;1.00;0.20
49343;PMS5003;35210;41.606;-87.602;2023-09-08T08:01:26;1.20;1.20;1.00
49343;PMS5003;35210;41.606;-87.602;2023-09-08T08:03:56;1.00;1.00;1.00
49343;PMS5003;35210;41.606;-87.602;2023-09-08T08:06:24;0.00;0.00;0.00
49343;PMS5003;35210;41.606;-87.602;2023-09-08T08:08:54;0.60;0.60;0.40
49343;PMS5003;35210;41.606;-87.602;2023-09-08T08:11:22;0.00;0.00;0.00
49343;PMS5003;35210;41.606;-87.602;2023-09-08T08:13:51;0.00;0.00;0.00
49343;PMS5003;35210;41.606;-87.602;2023-09-08T08:16:19;0.20;0.20;0.00
49343;PMS5003;35210;41.606;-87.602;2023-09-08T08:18:47;0.80;0.80;0.40
49343;PMS5003;35210;41.606;-87.602;2023-09-08T08:21:17;1.20;1.20;1.00
49343;PMS5003;35210;41.606;-87.602;2023-09-08T08:23:45;2.00;0.00;0.00
49343;PMS5003;35210;41.606;-87.602;2023-09-08T08:26:13;1.00;1.00;1.00
49343;PMS5003;35210;41.606;-87.602;2023-09-08T08:28:41;2.40;2.40;1.80
49343;PMS5003;35210;41.606;-87.602;2023-09-08T08:31:09;1.00;1.00;1.00
49343;PMS5003;35210;41.606;-87.602;2023-09-08T08:33:37;2.00;2.00;1.00
49343;PMS5003;35210;41.606;-87.602;2023-09-08T08:36:06;1.20;1.20;1.00
49343;PMS5003;35210;41.606;-87.602;2023-09-08T08:38:36;2.00;2.00;1.00
49343;PMS5003;35210;41.606;-87.602;2023-09-08T08:41:04;1.00;1.00;1.00
49343;PMS5003;35210;41.606;-87.602;2023-09-08T08:43:33;2.00;2.00;2.00
49343;PMS5003;35210;41.606;-87.602;2023-09-08T08:46:01;1.20;1.20;1.00
49343;PMS5003;35210;41.606;-87.602;2023-09-08T08:48:32;0.00;0.00;0.00
49343;PMS5003;35210;41.606;-87.602;2023-09-08T08:51:01;0.20;0.20;0.00
49343;PMS5003;35210;41.606;-87.602;2023-09-08T08:53:29;1.40;1.00;1.00
49343;PMS5003;35210;41.606;-87.602;2023-09-08T08:56:01;0.80;0.80;0.00
49343;PMS5003;35210;41.606;-87.602;2023-09-08T08:58:31;1.00;1.00;1.00
49343;PMS5003;35210;41.606;-87.602;2023-09-08T09:01:00;1.60;0.40;0.00
49343;PMS5003;35210;41.606;-87.602;2023-09-08T09:03:30;0.60;0.60;0.00
49343;PMS5003;35210;41.606;-87.602;2023-09-08T09:06:03;0.80;0.00;0.00
49343;PMS5003;35210;41.606;-87.602;2023-09-08T09:08:32;0.00;0.00;0.00
49343;PMS5003;35210;41.606;-87.602;2023-09-08T09:11:04;0.60;0.60;0.00
49343;PMS5003;35210;41.606;-87.602;2023-09-08T09:13:32;0.80;0.80;0.00
49343;PMS5003;35210;41.606;-87.602;2023-09-08T09:16:00;0.20;0.20;0.20
49343;PMS5003;35210;41.606;-87.602;2023-09-08T09:18:30;1.20;1.00;0.40
49343;PMS5003;35210;41.606;-87.602;2023-09-08T09:20:59;0.80;0.80;0.00
49343;PMS5003;35210;41.606;-87.602;2023-09-08T09:23:28;0.00;0.00;0.00
49343;PMS5003;35210;41.606;-87.602;2023-09-08T09:25:57;0.00;0.00;0.00
49343;PMS5003;35210;41.606;-87.602;2023-09-08T09:28:29;0.00;0.00;0.00
49343;PMS5003;35210;41.606;-87.602;2023-09-08T09:30:57;0.00;0.00;0.00
49343;PMS5003;35210;41.606;-87.602;2023-09-08T09:33:26;0.00;0.00;0.00
49343;PMS5003;35210;41.606;-87.602;2023-09-08T09:35:57;0.00;0.00;0.00
49343;PMS5003;35210;41.606;-87.602;2023-09-08T09:38:25;0.60;0.00;0.00
49343;PMS5003;35210;41.606;-87.602;2023-09-08T09:40:54;0.00;0.00;0.00
49343;PMS5003;35210;41.606;-87.602;2023-09-08T09:43:23;0.00;0.00;0.00
49343;PMS5003;35210;41.606;-87.602;2023-09-08T09:45:56;0.00;0.00;0.00
49343;PMS5003;35210;41.606;-87.602;2023-09-08T09:48:24;0.60;0.60;0.00
49343;PMS5003;35210;41.606;-87.602;2023-09-08T09:50:54;0.00;0.00;0.00
49343;PMS5003;35210;41.606;-87.602;2023-09-08T09:53:23;0.20;0.00;0.00
49343;PMS5003;35210;41.606;-87.602;2023-09-08T09:55:51;0.00;0.00;0.00
49343;PMS5003;35210;41.606;-87.602;2023-09-08T09:58:20;0.00;0.00;0.00
49343;PMS5003;35210;41.606;-87.602;2023-09-08T10:00:51;0.00;0.00;0.00
49343;PMS5003;35210;41.606;-87.602;2023-09-08T10:03:21;0.00;0.00;0.00
49343;PMS5003;35210;41.606;-87.602;2023-09-08T10:05:50;1.80;0.80;0.00
49343;PMS5003;35210;41.606;-87.602;2023-09-08T10:08:20;0.20;0.20;0.00
49343;PMS5003;35210;41.606;-87.602;2023-09-08T10:10:49;0.80;0.80;0.80
49343;PMS5003;35210;41.606;-87.602;2023-09-08T10:13:18;2.00;2.00;1.00
49343;PMS5003;35210;41.606;-87.602;2023-09-08T10:15:52;0.20;0.20;0.00
49343;PMS5003;35210;41.606;-87.602;2023-09-08T10:18:25;1.00;1.00;1.00
49343;PMS5003;35210;41.606;-87.602;2023-09-08T10:20:56;1.00;1.00;1.00
49343;PMS5003;35210;41.606;-87.602;2023-09-08T10:23:31;2.00;2.00;1.60
49343;PMS5003;35210;41.606;-87.602;2023-09-08T10:26:05;5.00;4.20;3.40
49343;PMS5003;35210;41.606;-87.602;2023-09-08T10:28:36;4.20;4.00;3.40
49343;PMS5003;35210;41.606;-87.602;2023-09-08T10:31:05;7.60;6.60;5.40
49343;PMS5003;35210;41.606;-87.602;2023-09-08T10:33:35;4.80;4.20;4.00
49343;PMS5003;35210;41.606;-87.602;2023-09-08T10:36:05;4.00;4.00;4.00
49343;PMS5003;35210;41.606;-87.602;2023-09-08T10:38:35;5.00;4.60;3.40
49343;PMS5003;35210;41.606;-87.602;2023-09-08T10:44:03;6.00;6.00;4.00
49343;PMS5003;35210;41.606;-87.602;2023-09-08T10:46:34;6.60;6.00;5.00
49343;PMS5003;35210;41.606;-87.602;2023-09-08T10:49:06;5.00;5.00;4.00
49343;PMS5003;35210;41.606;-87.602;2023-09-08T10:51:35;4.80;4.80;4.60
49343;PMS5003;35210;41.606;-87.602;2023-09-08T10:54:04;6.60;6.60;5.00
49343;PMS5003;35210;41.606;-87.602;2023-09-08T10:56:54;5.40;5.00;4.00
49343;PMS5003;35210;41.606;-87.602;2023-09-08T10:59:27;7.60;7.60;6.00
49343;PMS5003;35210;41.606;-87.602;2023-09-08T11:01:56;7.00;7.00;5.40
49343;PMS5003;35210;41.606;-87.602;2023-09-08T11:04:25;1.20;1.00;0.00
49343;PMS5003;35210;41.606;-87.602;2023-09-08T11:06:57;3.20;3.20;3.00
49343;PMS5003;35210;41.606;-87.602;2023-09-08T11:09:28;6.40;5.60;4.00
49343;PMS5003;35210;41.606;-87.602;2023-09-08T11:11:56;4.00;4.00;3.20
49343;PMS5003;35210;41.606;-87.602;2023-09-08T11:14:28;3.00;3.00;3.00
49343;PMS5003;35210;41.606;-87.602;2023-09-08T11:16:57;4.60;4.00;3.40
49343;PMS5003;35210;41.606;-87.602;2023-09-08T11:19:44;5.00;4.00;3.00
49343;PMS5003;35210;41.606;-87.602;2023-09-08T11:22:13;5.20;4.00;4.00
49343;PMS5003;35210;41.606;-87.602;2023-09-08T11:24:41;4.00;4.00;3.80
49343;PMS5003;35210;41.606;-87.602;2023-09-08T11:27:10;6.20;6.00;3.80
49343;PMS5003;35210;41.606;-87.602;2023-09-08T11:29:39;6.00;4.20;4.00
49343;PMS5003;35210;41.606;-87.602;2023-09-08T11:32:07;6.80;4.00;3.60
49343;PMS5003;35210;41.606;-87.602;2023-09-08T11:34:35;5.00;4.00;3.00
49343;PMS5003;35210;41.606;-87.602;2023-09-08T11:37:07;4.00;4.00;2.20
49343;PMS5003;35210;41.606;-87.602;2023-09-08T11:39:37;4.40;3.00;2.80
49343;PMS5003;35210;41.606;-87.602;2023-09-08T11:42:05;2.80;2.00;1.00
49343;PMS5003;35210;41.606;-87.602;2023-09-08T11:44:35;4.60;3.40;2.40
49343;PMS5003;35210;41.606;-87.602;2023-09-08T11:47:04;2.20;2.20;1.80
49343;PMS5003;35210;41.606;-87.602;2023-09-08T11:49:34;2.00;2.00;1.80
49343;PMS5003;35210;41.606;-87.602;2023-09-08T11:52:03;4.60;3.40;3.00
49343;PMS5003;35210;41.606;-87.602;2023-09-08T11:54:36;2.40;2.20;2.00
49343;PMS5003;35210;41.606;-87.602;2023-09-08T11:57:05;1.40;1.40;1.00
49343;PMS5003;35210;41.606;-87.602;2023-09-08T11:59:34;4.80;3.00;2.00
49343;PMS5003;35210;41.606;-87.602;2023-09-08T12:02:04;4.00;4.00;3.00
49343;PMS5003;35210;41.606;-87.602;2023-09-08T12:04:35;3.60;3.60;3.20
49343;PMS5003;35210;41.606;-87.602;2023-09-08T12:07:03;1.80;1.80;1.00
49343;PMS5003;35210;41.606;-87.602;2023-09-08T12:09:33;4.20;3.00;2.80
49343;PMS5003;35210;41.606;-87.602;2023-09-08T12:12:01;4.00;2.20;2.00
49343;PMS5003;35210;41.606;-87.602;2023-09-08T12:14:40;5.00;2.40;1.00
49343;PMS5003;35210;41.606;-87.602;2023-09-08T12:17:08;4.20;3.00;2.20
49343;PMS5003;35210;41.606;-87.602;2023-09-08T12:19:39;2.80;1.60;1.00
49343;PMS5003;35210;41.606;-87.602;2023-09-08T12:22:07;3.20;3.20;2.40
49343;PMS5003;35210;41.606;-87.602;2023-09-08T12:24:48;4.00;4.00;2.00
49343;PMS5003;35210;41.606;-87.602;2023-09-08T12:27:23;2.40;2.40;2.00
49343;PMS5003;35210;41.606;-87.602;2023-09-08T12:29:53;2.80;2.00;1.00
49343;PMS5003;35210;41.606;-87.602;2023-09-08T12:32:22;5.20;3.20;2.20
49343;PMS5003;35210;41.606;-87.602;2023-09-08T12:34:51;3.20;3.20;2.60
49343;PMS5003;35210;41.606;-87.602;2023-09-08T12:37:20;3.80;3.00;3.00
49343;PMS5003;35210;41.606;-87.602;2023-09-08T12:39:51;2.00;2.00;2.00
49343;PMS5003;35210;41.606;-87.602;2023-09-08T12:42:19;2.80;2.80;1.80
49343;PMS5003;35210;41.606;-87.602;2023-09-08T12:44:51;2.80;2.00;1.20
49343;PMS5003;35210;41.606;-87.602;2023-09-08T12:47:19;3.00;3.00;2.40
49343;PMS5003;35210;41.606;-87.602;2023-09-08T12:49:48;3.00;3.00;2.00
49343;PMS5003;35210;41.606;-87.602;2023-09-08T12:52:17;2.00;2.00;1.60
49343;PMS5003;35210;41.606;-87.602;2023-09-08T12:54:45;2.80;2.00;2.00
49343;PMS5003;35210;41.606;-87.602;2023-09-08T12:57:15;3.40;2.80;2.00
49343;PMS5003;35210;41.606;-87.602;2023-09-08T12:59:44;2.20;2.20;1.60
49343;PMS5003;35210;41.606;-87.602;2023-09-08T13:02:12;4.00;2.40;1.80
49343;PMS5003;35210;41.606;-87.602;2023-09-08T13:04:40;6.20;3.60;2.00
49343;PMS5003;35210;41.606;-87.602;2023-09-08T13:07:13;4.80;4.00;2.60
49343;PMS5003;35210;41.606;-87.602;2023-09-08T13:09:41;4.00;4.00;3.00
49343;PMS5003;35210;41.606;-87.602;2023-09-08T13:12:10;3.40;3.40;2.20
49343;PMS5003;35210;41.606;-87.602;2023-09-08T13:14:40;3.60;3.60;2.20
49343;PMS5003;35210;41.606;-87.602;2023-09-08T13:17:09;3.40;3.40;2.40
49343;PMS5003;35210;41.606;-87.602;2023-09-08T13:19:37;2.60;2.60;2.00
49343;PMS5003;35210;41.606;-87.602;2023-09-08T13:22:05;3.60;3.00;3.00
49343;PMS5003;35210;41.606;-87.602;2023-09-08T13:24:34;2.20;2.20;2.00
49343;PMS5003;35210;41.606;-87.602;2023-09-08T13:27:02;3.00;3.00;2.00
49343;PMS5003;35210;41.606;-87.602;2023-09-08T13:29:30;2.00;2.00;2.00
49343;PMS5003;35210;41.606;-87.602;2023-09-08T13:32:01;3.80;2.00;2.00
49343;PMS5003;35210;41.606;-87.602;2023-09-08T13:34:29;3.60;3.60;2.60
49343;PMS5003;35210;41.606;-87.602;2023-09-08T13:36:58;2.40;2.20;1.00
49343;PMS5003;35210;41.606;-87.602;2023-09-08T13:39:29;3.40;3.40;2.00
49343;PMS5003;35210;41.606;-87.602;2023-09-08T13:41:58;3.00;3.00;1.60
49343;PMS5003;35210;41.606;-87.602;2023-09-08T13:44:28;2.00;2.00;1.20
49343;PMS5003;35210;41.606;-87.602;2023-09-08T13:46:56;2.00;2.00;1.00
49343;PMS5003;35210;41.606;-87.602;2023-09-08T13:49:26;3.60;1.80;1.00
49343;PMS5003;35210;41.606;-87.602;2023-09-08T13:51:54;1.00;1.00;0.00
49343;PMS5003;35210;41.606;-87.602;2023-09-08T13:54:22;1.00;1.00;0.60
49343;PMS5003;35210;41.606;-87.602;2023-09-08T13:56:57;1.00;1.00;0.60
49343;PMS5003;35210;41.606;-87.602;2023-09-08T13:59:27;1.00;1.00;0.00
49343;PMS5003;35210;41.606;-87.602;2023-09-08T14:01:56;1.60;1.60;1.00
49343;PMS5003;35210;41.606;-87.602;2023-09-08T14:04:28;1.00;1.00;1.00
49343;PMS5003;35210;41.606;-87.602;2023-09-08T14:06:56;1.00;1.00;1.00
49343;PMS5003;35210;41.606;-87.602;2023-09-08T14:09:24;1.00;1.00;0.40
49343;PMS5003;35210;41.606;-87.602;2023-09-08T14:11:53;1.00;1.00;1.00
49343;PMS5003;35210;41.606;-87.602;2023-09-08T14:14:22;1.40;1.40;1.00